Time;durP1;ratioP1;P1;durP2;ratioP2;P2;SDS_P1;SDS_P2;PMS_P1;PMS_P2;Temp;Humidity;BMP_temperature;BMP_pressure;BME280_temperature;BME280_humidity;BME280_pressure;Samples;Min_cycle;Max_cycle;Signal;HPM_P1;HPM_P2
2023/04/15 00:03:08;;;;;;;;;;;19.00;46.00;;;;;;10366881;28;1048;-84
2023/04/15 00:08:04;;;;;;;;;;;19.00;46.00;;;;;;10367282;28;1909;-83
2023/04/15 00:12:59;;;;;;;;;;;19.10;46.00;;;;;;10367226;28;848;-83
2023/04/15 00:17:55;;;;;;;;;;;19.10;46.00;;;;;;10367668;28;802;-83
2023/04/15 00:22:51;;;;;;;;;;;19.10;45.90;;;;;;10366921;28;856;-83
2023/04/15 00:27:46;;;;;;;;;;;19.00;45.90;;;;;;10366018;28;1893;-84
2023/04/15 00:32:41;;;;;;;;;;;19.00;45.90;;;;;;10366326;28;1159;-83
2023/04/15 00:37:37;;;;;;;;;;;19.00;45.90;;;;;;10367121;28;805;-84
2023/04/15 00:42:33;;;;;;;;;;;19.00;45.90;;;;;;10366517;28;892;-84
2023/04/15 00:47:28;;;;;;;;;;;19.00;46.00;;;;;;10366826;28;1910;-84
2023/04/15 00:52:24;;;;;;;;;;;19.00;46.00;;;;;;10365650;28;916;-84
2023/04/15 00:57:20;;;;;;;;;;;19.00;45.90;;;;;;10368322;28;1270;-84
2023/04/15 01:02:15;;;;;;;;;;;19.00;46.60;;;;;;10375074;28;864;-84
2023/04/15 01:07:11;;;;;;;;;;;18.90;45.90;;;;;;10374909;28;829;-84
2023/04/15 01:12:07;;;;;;;;;;;19.00;46.00;;;;;;10374049;28;1894;-84
2023/04/15 01:17:02;;;;;;;;;;;19.00;46.00;;;;;;10373873;28;973;-84
2023/04/15 01:21:58;;;;;;;;;;;19.00;45.90;;;;;;10373706;28;1055;-84
2023/04/15 01:26:53;;;;;;;;;;;18.90;45.90;;;;;;10373506;28;873;-84
2023/04/15 01:31:49;;;;;;;;;;;18.90;46.00;;;;;;10355071;28;1886;-84
2023/04/15 01:36:45;;;;;;;;;;;18.90;45.90;;;;;;10373118;28;841;-84
2023/04/15 01:41:41;;;;;;;;;;;19.00;45.90;;;;;;10373538;28;790;-84
2023/04/15 01:46:36;;;;;;;;;;;19.00;45.90;;;;;;10372803;28;811;-84
2023/04/15 01:51:32;;;;;;;;;;;19.00;45.90;;;;;;10372565;28;1894;-84
2023/04/15 01:56:27;;;;;;;;;;;18.90;45.90;;;;;;10372170;28;1063;-84
2023/04/15 02:01:22;;;;;;;;;;;18.90;45.80;;;;;;10372196;28;804;-84
2023/04/15 02:06:18;;;;;;;;;;;18.90;45.80;;;;;;10372605;28;886;-84
2023/04/15 02:11:13;;;;;;;;;;;18.90;45.80;;;;;;10372563;28;1910;-84
2023/04/15 02:16:08;;;;;;;;;;;18.90;45.80;;;;;;10371053;28;896;-84
2023/04/15 02:21:05;;;;;;;;;;;18.90;45.90;;;;;;10371465;28;913;-84
2023/04/15 02:26:01;;;;;;;;;;;18.90;45.90;;;;;;10371292;28;790;-84
2023/04/15 02:30:58;;;;;;;;;;;18.90;45.90;;;;;;10371054;28;1957;-84
2023/04/15 02:35:53;;;;;;;;;;;18.90;45.80;;;;;;10370367;28;773;-84
2023/04/15 02:40:49;;;;;;;;;;;18.90;45.80;;;;;;10370686;28;805;-84
2023/04/15 02:45:45;;;;;;;;;;;18.90;45.80;;;;;;10370781;28;781;-84
2023/04/15 02:50:41;;;;;;;;;;;18.80;45.90;;;;;;10370241;28;1953;-84
2023/04/15 02:55:36;;;;;;;;;;;18.80;45.90;;;;;;10369510;28;1223;-84
2023/04/15 03:00:31;;;;;;;;;;;18.90;45.90;;;;;;10369891;28;912;-84
2023/04/15 03:05:27;;;;;;;;;;;18.80;45.80;;;;;;10369118;28;837;-84
2023/04/15 03:10:22;;;;;;;;;;;18.90;45.80;;;;;;10369423;28;1898;-84
2023/04/15 03:15:17;;;;;;;;;;;18.90;45.90;;;;;;10369336;28;867;-85
2023/04/15 03:20:13;;;;;;;;;;;18.80;45.80;;;;;;10369063;28;829;-84
2023/04/15 03:25:08;;;;;;;;;;;18.80;45.80;;;;;;10368602;28;1012;-84
2023/04/15 03:30:05;;;;;;;;;;;18.80;45.80;;;;;;10368615;28;1898;-84
2023/04/15 03:35:00;;;;;;;;;;;18.80;45.80;;;;;;10368554;28;838;-84
2023/04/15 03:39:56;;;;;;;;;;;18.80;45.80;;;;;;10368978;28;810;-84
2023/04/15 03:44:51;;;;;;;;;;;18.80;45.90;;;;;;10368794;28;995;-84
2023/04/15 03:49:46;;;;;;;;;;;18.80;45.80;;;;;;10367916;28;1957;-84
2023/04/15 03:54:42;;;;;;;;;;;18.80;45.90;;;;;;10367597;28;1203;-84
2023/04/15 03:59:37;;;;;;;;;;;18.80;45.90;;;;;;10368347;28;888;-84
2023/04/15 04:04:33;;;;;;;;;;;18.80;45.90;;;;;;10368171;28;790;-84
2023/04/15 04:09:28;;;;;;;;;;;18.80;45.70;;;;;;10367267;28;1955;-84
2023/04/15 04:14:28;;;;;;;;;;;18.80;45.80;;;;;;10368430;28;776;-84
2023/04/15 04:19:23;;;;;;;;;;;18.80;45.80;;;;;;10366972;28;930;-84
2023/04/15 04:24:19;;;;;;;;;;;18.80;45.70;;;;;;10366320;28;1007;-84
2023/04/15 04:29:14;;;;;;;;;;;18.80;45.70;;;;;;10367131;28;1893;-84
2023/04/15 04:34:10;;;;;;;;;;;18.80;45.70;;;;;;10366656;28;794;-84
2023/04/15 04:39:06;;;;;;;;;;;18.80;45.80;;;;;;10366521;28;872;-84
2023/04/15 04:44:01;;;;;;;;;;;18.80;45.70;;;;;;10366490;28;870;-84
2023/04/15 04:48:56;;;;;;;;;;;18.90;45.70;;;;;;10366301;28;1899;-84
2023/04/15 04:53:52;;;;;;;;;;;18.90;45.70;;;;;;10366758;28;888;-84
2023/04/15 04:58:47;;;;;;;;;;;18.80;45.70;;;;;;10366631;28;1132;-84
2023/04/15 05:03:43;;;;;;;;;;;18.80;45.60;;;;;;10366058;28;1043;-84
2023/04/15 05:08:40;;;;;;;;;;;18.90;45.60;;;;;;10365922;28;1967;-84
2023/04/15 05:13:37;;;;;;;;;;;18.90;45.50;;;;;;10365939;28;946;-84
2023/04/15 05:18:32;;;;;;;;;;;18.90;45.60;;;;;;10365840;28;884;-84
2023/04/15 05:23:28;;;;;;;;;;;18.90;45.50;;;;;;10347546;28;1179;-84
2023/04/15 05:28:23;;;;;;;;;;;18.90;46.10;;;;;;10364960;28;1902;-84
2023/04/15 05:33:18;;;;;;;;;;;18.90;45.60;;;;;;10366146;28;955;-84
2023/04/15 05:38:14;;;;;;;;;;;18.90;45.60;;;;;;10366179;28;899;-77
2023/04/15 05:43:09;;;;;;;;;;;18.80;45.50;;;;;;10367435;28;869;-84
2023/04/15 05:48:05;;;;;;;;;;;18.90;45.50;;;;;;10372782;28;1957;-85
2023/04/15 05:53:01;;;;;;;;;;;18.90;45.50;;;;;;10372634;28;914;-85
2023/04/15 05:57:56;;;;;;;;;;;18.80;45.50;;;;;;10372741;28;1338;-71
2023/04/15 06:02:52;;;;;;;;;;;18.80;45.50;;;;;;10372837;28;829;-71
2023/04/15 06:07:48;;;;;;;;;;;18.80;45.50;;;;;;10372000;28;1914;-77
2023/04/15 06:12:45;;;;;;;;;;;18.70;45.40;;;;;;10371998;28;1017;-70
2023/04/15 06:17:40;;;;;;;;;;;18.70;45.30;;;;;;10371560;28;862;-70
2023/04/15 06:22:35;;;;;;;;;;;18.70;45.20;;;;;;10372121;28;790;-73
2023/04/15 06:27:31;;;;;;;;;;;18.70;45.40;;;;;;10372263;28;1913;-72
2023/04/15 06:32:26;;;;;;;;;;;18.70;45.30;;;;;;10371706;28;868;-73
2023/04/15 06:37:22;;;;;;;;;;;18.70;45.40;;;;;;10370880;28;872;-72
2023/04/15 06:42:17;;;;;;;;;;;18.80;45.50;;;;;;10371569;28;818;-72
2023/04/15 06:47:13;;;;;;;;;;;18.80;45.60;;;;;;10371024;28;830;-71
2023/04/15 06:52:08;;;;;;;;;;;18.80;45.70;;;;;;10370918;28;1898;-72
2023/04/15 06:57:04;;;;;;;;;;;18.80;45.80;;;;;;10369791;28;1242;-72
2023/04/15 07:01:59;;;;;;;;;;;18.80;46.00;;;;;;10369801;28;865;-71
2023/04/15 07:06:55;;;;;;;;;;;18.80;46.00;;;;;;10370235;28;838;-72
2023/04/15 07:11:51;;;;;;;;;;;18.90;45.90;;;;;;10369368;28;1898;-71
2023/04/15 07:16:46;;;;;;;;;;;18.80;45.90;;;;;;10369276;28;858;-71
2023/04/15 07:21:42;;;;;;;;;;;18.80;45.90;;;;;;10369050;28;890;-71
2023/04/15 07:26:37;;;;;;;;;;;18.80;45.80;;;;;;10368937;28;863;-67
2023/04/15 07:31:32;;;;;;;;;;;18.80;45.90;;;;;;10368065;28;1901;-71
2023/04/15 07:36:28;;;;;;;;;;;18.70;45.90;;;;;;10368627;28;862;-72
2023/04/15 07:41:24;;;;;;;;;;;18.80;46.00;;;;;;10369707;28;860;-71
2023/04/15 07:46:20;;;;;;;;;;;18.80;46.00;;;;;;10368386;28;746;-71
2023/04/15 07:51:16;;;;;;;;;;;18.80;46.00;;;;;;10368560;28;1906;-72
2023/04/15 07:56:11;;;;;;;;;;;18.80;45.80;;;;;;10368182;28;1132;-70
2023/04/15 08:01:07;;;;;;;;;;;18.90;46.30;;;;;;10367669;28;938;-70
2023/04/15 08:06:02;;;;;;;;;;;18.80;46.40;;;;;;10367402;28;810;-78
2023/04/15 08:10:58;;;;;;;;;;;18.80;46.20;;;;;;10367258;28;1898;-78
2023/04/15 08:15:53;;;;;;;;;;;18.70;46.30;;;;;;10367772;28;911;-78
2023/04/15 08:20:48;;;;;;;;;;;18.70;46.40;;;;;;10367031;28;766;-80
2023/04/15 08:25:44;;;;;;;;;;;18.70;46.20;;;;;;10366883;28;914;-80
2023/04/15 08:30:40;;;;;;;;;;;18.80;46.30;;;;;;10367250;28;1898;-79
2023/04/15 08:35:35;;;;;;;;;;;18.70;46.20;;;;;;10366619;28;898;-79
2023/04/15 08:40:30;;;;;;;;;;;18.70;46.20;;;;;;10366554;28;793;-80
2023/04/15 08:45:26;;;;;;;;;;;18.70;46.20;;;;;;10366456;28;945;-79
2023/04/15 08:50:21;;;;;;;;;;;18.70;46.20;;;;;;10367440;28;1893;-79
2023/04/15 08:55:17;;;;;;;;;;;18.70;46.30;;;;;;10366498;28;1423;-79
2023/04/15 09:00:12;;;;;;;;;;;18.70;46.20;;;;;;10366141;28;861;-79
2023/04/15 09:05:08;;;;;;;;;;;18.80;46.10;;;;;;10366695;28;935;-79
2023/04/15 09:10:03;;;;;;;;;;;18.70;46.10;;;;;;10365895;28;2011;-79
2023/04/15 09:14:59;;;;;;;;;;;18.70;46.20;;;;;;10365829;28;787;-79
2023/04/15 09:19:54;;;;;;;;;;;18.70;46.10;;;;;;10370270;28;854;-79
2023/04/15 09:24:49;;;;;;;;;;;18.70;46.10;;;;;;10374661;28;959;-79
2023/04/15 09:29:45;;;;;;;;;;;18.70;46.30;;;;;;10373516;28;1902;-79
2023/04/15 09:34:40;;;;;;;;;;;18.70;46.20;;;;;;10372644;28;1556;-79
2023/04/15 09:39:36;;;;;;;;;;;18.70;46.30;;;;;;10373061;28;985;-81
2023/04/15 09:44:31;;;;;;;;;;;18.70;46.30;;;;;;10373701;28;797;-70
2023/04/15 09:49:27;;;;;;;;;;;18.50;46.00;;;;;;10372755;28;1960;-72
2023/04/15 09:54:22;;;;;;;;;;;18.60;47.00;;;;;;10372616;28;882;-69
2023/04/15 09:59:18;;;;;;;;;;;18.70;47.10;;;;;;10372315;28;1398;-67
2023/04/15 10:04:13;;;;;;;;;;;18.70;47.30;;;;;;10371605;28;898;-68
2023/04/15 10:09:08;;;;;;;;;;;18.70;47.10;;;;;;10372556;28;1902;-68
2023/04/15 10:14:04;;;;;;;;;;;18.70;47.00;;;;;;10372425;28;908;-69
2023/04/15 10:18:59;;;;;;;;;;;18.70;46.90;;;;;;10371716;28;761;-69
2023/04/15 10:23:55;;;;;;;;;;;18.70;46.90;;;;;;10371512;28;790;-69
2023/04/15 10:28:50;;;;;;;;;;;18.70;47.10;;;;;;10371110;28;1894;-69
2023/04/15 10:33:46;;;;;;;;;;;18.70;47.60;;;;;;10370821;28;944;-69
2023/04/15 10:38:42;;;;;;;;;;;18.70;47.60;;;;;;10370851;28;980;-70
2023/04/15 10:43:37;;;;;;;;;;;18.70;47.40;;;;;;10370645;28;902;-69
2023/04/15 10:48:32;;;;;;;;;;;18.70;47.30;;;;;;10370351;28;1897;-65
2023/04/15 10:53:28;;;;;;;;;;;18.70;47.30;;;;;;10370857;28;1111;-67
2023/04/15 10:58:23;;;;;;;;;;;18.70;47.40;;;;;;10370523;28;1159;-66
2023/04/15 11:03:19;;;;;;;;;;;18.70;47.40;;;;;;10369806;28;966;-67
2023/04/15 11:08:15;;;;;;;;;;;18.70;47.50;;;;;;10369527;28;1906;-66
2023/04/15 11:13:10;;;;;;;;;;;18.80;47.50;;;;;;10370304;28;879;-66
2023/04/15 11:18:06;;;;;;;;;;;18.80;47.80;;;;;;10367707;28;1050;-66
2023/04/15 11:23:01;;;;;;;;;;;18.80;47.80;;;;;;10368463;28;853;-66
2023/04/15 11:27:56;;;;;;;;;;;18.80;47.80;;;;;;10368911;28;1959;-66
2023/04/15 11:32:52;;;;;;;;;;;18.80;47.90;;;;;;10367525;28;1204;-65
2023/04/15 11:37:48;;;;;;;;;;;18.80;47.80;;;;;;10368499;28;805;-65
2023/04/15 11:42:43;;;;;;;;;;;18.80;47.80;;;;;;10366671;28;1055;-65
2023/04/15 11:47:39;;;;;;;;;;;18.70;48.00;;;;;;10367517;28;1957;-65
2023/04/15 11:52:34;;;;;;;;;;;18.80;47.90;;;;;;10367801;28;848;-67
2023/04/15 11:57:30;;;;;;;;;;;18.80;47.80;;;;;;10367586;28;1418;-65
2023/04/15 12:02:26;;;;;;;;;;;18.80;47.90;;;;;;10367143;28;882;-65
2023/04/15 12:07:21;;;;;;;;;;;18.80;48.00;;;;;;10367554;28;823;-65
2023/04/15 12:12:16;;;;;;;;;;;18.70;48.10;;;;;;10367050;28;1980;-65
2023/04/15 12:17:12;;;;;;;;;;;18.80;48.10;;;;;;10367117;28;953;-66
2023/04/15 12:22:07;;;;;;;;;;;18.80;48.00;;;;;;10366507;28;886;-65
2023/04/15 12:27:03;;;;;;;;;;;18.80;48.20;;;;;;10367325;28;921;-66
2023/04/15 12:31:58;;;;;;;;;;;18.80;48.10;;;;;;10366183;28;1965;-66
2023/04/15 12:36:53;;;;;;;;;;;18.80;48.20;;;;;;10366604;28;756;-65
2023/04/15 12:41:49;;;;;;;;;;;18.80;48.20;;;;;;10366637;28;826;-64
2023/04/15 12:46:45;;;;;;;;;;;18.80;48.20;;;;;;10366688;28;876;-73
2023/04/15 12:51:40;;;;;;;;;;;18.70;48.10;;;;;;10364915;28;1909;-73
2023/04/15 12:56:36;;;;;;;;;;;18.70;48.10;;;;;;10373896;28;1357;-75
2023/04/15 13:01:31;;;;;;;;;;;18.60;48.20;;;;;;10374176;28;785;-74
2023/04/15 13:06:28;;;;;;;;;;;18.70;48.10;;;;;;10374832;28;841;-74
2023/04/15 13:11:24;;;;;;;;;;;18.60;47.90;;;;;;10373933;28;1985;-74
2023/04/15 13:16:20;;;;;;;;;;;18.60;48.00;;;;;;10374844;28;773;-74
2023/04/15 13:21:16;;;;;;;;;;;18.60;47.90;;;;;;10373963;28;887;-74
2023/04/15 13:26:11;;;;;;;;;;;18.60;47.80;;;;;;10373466;28;895;-75
2023/04/15 13:31:06;;;;;;;;;;;18.50;47.80;;;;;;10374243;28;1910;-77
2023/04/15 13:36:02;;;;;;;;;;;18.60;48.20;;;;;;10373388;28;771;-70
2023/04/15 13:40:57;;;;;;;;;;;18.60;48.10;;;;;;10373205;28;761;-74
2023/04/15 13:45:52;;;;;;;;;;;18.60;48.30;;;;;;10373711;28;931;-74
2023/04/15 13:50:48;;;;;;;;;;;18.50;48.20;;;;;;10372748;28;1906;-74
2023/04/15 13:55:43;;;;;;;;;;;18.60;48.10;;;;;;10372487;28;1436;-74
2023/04/15 14:00:39;;;;;;;;;;;18.50;47.90;;;;;;10372365;28;845;-74
2023/04/15 14:05:34;;;;;;;;;;;18.50;48.00;;;;;;10371611;28;977;-74
2023/04/15 14:10:30;;;;;;;;;;;18.50;47.80;;;;;;10372611;28;1988;-74
2023/04/15 14:15:25;;;;;;;;;;;18.50;47.80;;;;;;10371842;28;845;-74
2023/04/15 14:20:21;;;;;;;;;;;18.50;47.90;;;;;;10371663;28;845;-74
2023/04/15 14:25:16;;;;;;;;;;;18.50;47.80;;;;;;10371326;28;857;-74
2023/04/15 14:30:11;;;;;;;;;;;18.50;47.80;;;;;;10371228;28;1968;-77
2023/04/15 14:35:07;;;;;;;;;;;18.50;47.70;;;;;;10371085;28;833;-69
2023/04/15 14:40:02;;;;;;;;;;;18.60;48.00;;;;;;10370940;28;806;-69
2023/04/15 14:44:57;;;;;;;;;;;18.70;48.40;;;;;;10370732;28;878;-69
2023/04/15 14:49:53;;;;;;;;;;;18.80;48.70;;;;;;10371046;28;1967;-70
2023/04/15 14:54:48;;;;;;;;;;;18.80;48.60;;;;;;10370127;28;1282;-70
2023/04/15 14:59:44;;;;;;;;;;;18.80;48.60;;;;;;10370782;28;865;-71
2023/04/15 15:04:39;;;;;;;;;;;18.80;48.80;;;;;;10370433;28;952;-70
2023/04/15 15:09:35;;;;;;;;;;;18.80;48.70;;;;;;10369663;28;1921;-69
2023/04/15 15:14:30;;;;;;;;;;;18.80;48.70;;;;;;10369812;28;856;-70
2023/04/15 15:19:26;;;;;;;;;;;18.80;48.70;;;;;;10368584;28;778;-70
2023/04/15 15:24:21;;;;;;;;;;;18.80;48.80;;;;;;10369253;28;1014;-68
2023/04/15 15:29:17;;;;;;;;;;;18.80;48.50;;;;;;10369122;28;1905;-70
2023/04/15 15:34:12;;;;;;;;;;;18.80;48.90;;;;;;10368292;28;793;-69
2023/04/15 15:39:07;;;;;;;;;;;18.80;48.90;;;;;;10368247;28;805;-70
2023/04/15 15:44:03;;;;;;;;;;;18.80;48.70;;;;;;10367666;28;1230;-70
2023/04/15 15:48:58;;;;;;;;;;;18.80;48.70;;;;;;10368623;28;1898;-70
2023/04/15 15:53:53;;;;;;;;;;;18.90;49.00;;;;;;10367278;28;971;-69
2023/04/15 15:58:49;;;;;;;;;;;18.90;49.10;;;;;;10367223;28;1236;-73
2023/04/15 16:03:44;;;;;;;;;;;18.90;49.10;;;;;;10366933;28;848;-78
2023/04/15 16:08:40;;;;;;;;;;;18.80;49.20;;;;;;10367337;28;1969;-79
2023/04/15 16:13:35;;;;;;;;;;;18.80;48.90;;;;;;10366537;28;1272;-78
2023/04/15 16:18:30;;;;;;;;;;;18.70;48.70;;;;;;10367289;28;964;-78
2023/04/15 16:23:26;;;;;;;;;;;18.60;48.80;;;;;;10366869;28;773;-78
2023/04/15 16:28:21;;;;;;;;;;;18.60;48.70;;;;;;10366648;28;1906;-78
2023/04/15 16:33:16;;;;;;;;;;;18.60;48.70;;;;;;10341249;28;1020;-78
2023/04/15 16:38:12;;;;;;;;;;;18.60;48.60;;;;;;10326354;28;783;-78
2023/04/15 16:43:10;;;;;;;;;;;18.60;48.50;;;;;;10325397;28;910;-78
2023/04/15 16:48:05;;;;;;;;;;;18.60;48.40;;;;;;10325239;28;1906;-79
2023/04/15 16:53:00;;;;;;;;;;;18.60;48.50;;;;;;10326061;28;791;-79
2023/04/15 16:57:56;;;;;;;;;;;18.60;48.40;;;;;;10325360;28;1207;-69
2023/04/15 17:02:51;;;;;;;;;;;18.60;48.50;;;;;;10325126;28;794;-70
2023/04/15 17:07:46;;;;;;;;;;;18.70;49.20;;;;;;10325625;28;880;-69
2023/04/15 17:12:42;;;;;;;;;;;18.80;48.70;;;;;;10325337;28;1976;-69
2023/04/15 17:17:37;;;;;;;;;;;18.80;48.80;;;;;;10324845;28;919;-69
2023/04/15 17:22:32;;;;;;;;;;;18.80;48.80;;;;;;10324079;28;885;-69
2023/04/15 17:27:29;;;;;;;;;;;18.80;48.90;;;;;;10324628;28;885;-70
2023/04/15 17:32:25;;;;;;;;;;;18.80;48.80;;;;;;10324461;28;1972;-70
2023/04/15 17:37:20;;;;;;;;;;;18.80;48.80;;;;;;10324306;28;974;-70
2023/04/15 17:42:16;;;;;;;;;;;18.80;48.90;;;;;;10327394;28;1089;-68
2023/04/15 17:47:11;;;;;;;;;;;18.80;49.10;;;;;;10331794;28;1066;-70
2023/04/15 17:52:07;;;;;;;;;;;18.80;48.80;;;;;;10331051;28;1965;-70
2023/04/15 17:57:02;;;;;;;;;;;18.80;48.70;;;;;;10331628;28;1137;-70
2023/04/15 18:01:57;;;;;;;;;;;18.80;48.80;;;;;;10331020;28;957;-70
2023/04/15 18:06:53;;;;;;;;;;;18.90;48.90;;;;;;10331537;28;934;-69
2023/04/15 18:11:48;;;;;;;;;;;18.90;48.80;;;;;;10330842;28;1976;-70
2023/04/15 18:16:44;;;;;;;;;;;18.80;48.90;;;;;;10330701;28;874;-69
2023/04/15 18:21:39;;;;;;;;;;;18.90;48.90;;;;;;10330013;28;791;-70
2023/04/15 18:26:34;;;;;;;;;;;18.90;48.70;;;;;;10332171;28;1036;-69
2023/04/15 18:31:30;;;;;;;;;;;18.90;48.80;;;;;;10329858;28;1922;-69
2023/04/15 18:36:26;;;;;;;;;;;18.90;49.00;;;;;;10329905;28;868;-70
2023/04/15 18:41:21;;;;;;;;;;;18.90;49.00;;;;;;10329425;28;938;-70
2023/04/15 18:46:17;;;;;;;;;;;18.90;48.90;;;;;;10329547;28;858;-70
2023/04/15 18:51:13;;;;;;;;;;;18.90;48.90;;;;;;10329488;28;1967;-70
2023/04/15 18:56:08;;;;;;;;;;;18.90;48.90;;;;;;10329161;28;1104;-69
2023/04/15 19:01:04;;;;;;;;;;;18.90;48.80;;;;;;10329176;28;869;-70
2023/04/15 19:06:00;;;;;;;;;;;18.90;48.80;;;;;;10329267;28;829;-70
2023/04/15 19:10:55;;;;;;;;;;;18.90;48.90;;;;;;10329103;28;1965;-70
2023/04/15 19:15:51;;;;;;;;;;;18.90;48.90;;;;;;10329510;28;860;-70
2023/04/15 19:20:49;;;;;;;;;;;18.90;49.20;;;;;;10327842;28;929;-69
2023/04/15 19:25:44;;;;;;;;;;;18.90;49.00;;;;;;10326215;28;1054;-69
2023/04/15 19:30:40;;;;;;;;;;;18.90;49.10;;;;;;10327608;28;1910;-69
2023/04/15 19:35:37;;;;;;;;;;;18.90;49.10;;;;;;10328089;28;891;-69
2023/04/15 19:40:32;;;;;;;;;;;18.90;49.10;;;;;;10328729;28;798;-68
2023/04/15 19:45:27;;;;;;;;;;;18.90;49.10;;;;;;10326424;28;937;-68
2023/04/15 19:50:25;;;;;;;;;;;18.80;48.90;;;;;;10327489;28;1922;-68
2023/04/15 19:55:20;;;;;;;;;;;18.70;48.80;;;;;;10326911;28;1109;-68
2023/04/15 20:00:16;;;;;;;;;;;18.70;48.90;;;;;;10327207;28;862;-68
2023/04/15 20:05:12;;;;;;;;;;;18.60;48.80;;;;;;10326505;28;872;-68
2023/04/15 20:10:10;;;;;;;;;;;18.60;48.80;;;;;;10326073;28;1914;-68
2023/04/15 20:15:06;;;;;;;;;;;18.60;48.70;;;;;;10325735;28;970;-70
2023/04/15 20:20:01;;;;;;;;;;;18.60;48.80;;;;;;10325991;28;874;-70
2023/04/15 20:24:57;;;;;;;;;;;18.60;49.00;;;;;;10325840;28;874;-71
2023/04/15 20:29:52;;;;;;;;;;;18.70;49.10;;;;;;10308027;28;1906;-70
2023/04/15 20:34:47;;;;;;;;;;;18.70;49.20;;;;;;10325095;28;838;-77
2023/04/15 20:39:43;;;;;;;;;;;18.70;49.20;;;;;;10325589;28;830;-77
2023/04/15 20:44:38;;;;;;;;;;;18.60;49.50;;;;;;10325550;28;889;-77
2023/04/15 20:49:34;;;;;;;;;;;18.50;49.60;;;;;;10325348;28;1913;-77
2023/04/15 20:54:29;;;;;;;;;;;18.50;49.50;;;;;;10325239;28;906;-76
2023/04/15 20:59:24;;;;;;;;;;;18.50;49.40;;;;;;10326235;28;1168;-78
2023/04/15 21:04:20;;;;;;;;;;;18.50;49.30;;;;;;10325600;28;852;-78
2023/04/15 21:09:16;;;;;;;;;;;18.50;49.10;;;;;;10325678;28;1991;-78
2023/04/15 21:14:11;;;;;;;;;;;18.50;49.10;;;;;;10326675;28;907;-78
2023/04/15 21:19:07;;;;;;;;;;;18.40;49.10;;;;;;10332909;28;821;-78
2023/04/15 21:24:03;;;;;;;;;;;18.30;49.10;;;;;;10333335;28;893;-79
2023/04/15 21:28:58;;;;;;;;;;;18.40;49.00;;;;;;10332962;28;1906;-78
2023/04/15 21:33:54;;;;;;;;;;;18.40;48.90;;;;;;10332158;28;961;-74
2023/04/15 21:38:49;;;;;;;;;;;18.40;48.90;;;;;;10332133;28;774;-74
2023/04/15 21:43:44;;;;;;;;;;;18.40;49.00;;;;;;10331898;28;876;-74
2023/04/15 21:48:40;;;;;;;;;;;18.40;48.90;;;;;;10332568;28;1906;-74
2023/04/15 21:53:35;;;;;;;;;;;18.40;48.90;;;;;;10331663;28;1196;-74
2023/04/15 21:58:31;;;;;;;;;;;18.30;48.80;;;;;;10330695;28;1293;-74
2023/04/15 22:03:26;;;;;;;;;;;18.40;48.90;;;;;;10331180;28;821;-74
2023/04/15 22:08:21;;;;;;;;;;;18.40;48.90;;;;;;10331545;28;1977;-74
2023/04/15 22:13:17;;;;;;;;;;;18.40;48.70;;;;;;10332152;28;853;-77
2023/04/15 22:18:12;;;;;;;;;;;18.40;48.80;;;;;;10330697;28;987;-77
2023/04/15 22:23:08;;;;;;;;;;;18.30;48.70;;;;;;10330432;28;859;-77
2023/04/15 22:28:06;;;;;;;;;;;18.30;48.70;;;;;;10330472;28;1910;-77
2023/04/15 22:33:01;;;;;;;;;;;18.30;48.70;;;;;;10330101;28;814;-77
2023/04/15 22:37:56;;;;;;;;;;;18.30;48.70;;;;;;10330011;28;855;-77
2023/04/15 22:42:52;;;;;;;;;;;18.30;48.70;;;;;;10330335;28;957;-77
2023/04/15 22:47:47;;;;;;;;;;;18.30;48.70;;;;;;10330226;28;782;-77
2023/04/15 22:52:45;;;;;;;;;;;18.30;48.70;;;;;;10329364;28;1902;-77
2023/04/15 22:57:40;;;;;;;;;;;18.30;48.70;;;;;;10330021;28;1105;-77
2023/04/15 23:02:35;;;;;;;;;;;18.30;48.60;;;;;;10329435;28;869;-77
2023/04/15 23:07:31;;;;;;;;;;;18.30;48.60;;;;;;10328792;28;880;-77
2023/04/15 23:12:26;;;;;;;;;;;18.30;48.50;;;;;;10328546;28;1902;-77
2023/04/15 23:17:22;;;;;;;;;;;18.30;48.50;;;;;;10329005;28;784;-77
2023/04/15 23:22:17;;;;;;;;;;;18.30;48.70;;;;;;10328159;28;849;-77
2023/04/15 23:27:12;;;;;;;;;;;18.30;48.60;;;;;;10328032;28;878;-78
2023/04/15 23:32:08;;;;;;;;;;;18.30;48.60;;;;;;10327753;28;1898;-78
2023/04/15 23:37:03;;;;;;;;;;;18.30;48.60;;;;;;10327395;28;893;-77
2023/04/15 23:41:59;;;;;;;;;;;18.30;48.50;;;;;;10327383;28;909;-77
2023/04/15 23:46:54;;;;;;;;;;;18.30;48.50;;;;;;10327202;28;769;-77
2023/04/15 23:51:49;;;;;;;;;;;18.20;48.60;;;;;;10326854;28;1902;-78
2023/04/15 23:56:45;;;;;;;;;;;18.30;48.60;;;;;;10327308;28;1334;-77
